Time;durP1;ratioP1;P1;durP2;ratioP2;P2;SDS_P1;SDS_P2;PMS_P1;PMS_P2;Temp;Humidity;BMP_temperature;BMP_pressure;BME280_temperature;BME280_humidity;BME280_pressure;Samples;Min_cycle;Max_cycle;Signal;HPM_P1;HPM_P2
2023/04/30 00:01:31;;;;;;;17.75;9.27;;;;;;;7.47;100.00;102338.28;4913343;29;20566;-88
2023/04/30 00:03:57;;;;;;;20.00;9.52;;;;;;;7.47;100.00;102333.13;4932445;29;20035;-87
2023/04/30 00:06:22;;;;;;;18.08;9.50;;;;;;;7.52;100.00;102337.47;4905178;29;20035;-87
2023/04/30 00:08:47;;;;;;;19.98;10.13;;;;;;;7.52;100.00;102332.31;4919523;29;20032;-87
2023/04/30 00:11:13;;;;;;;18.80;9.35;;;;;;;7.49;100.00;102332.31;4902391;29;20055;-87
2023/04/30 00:13:38;;;;;;;16.50;9.33;;;;;;;7.56;100.00;102334.97;4927215;29;20031;-87
2023/04/30 00:16:04;;;;;;;15.85;8.63;;;;;;;7.48;100.00;102327.13;4933508;29;20282;-88
2023/04/30 00:18:29;;;;;;;17.15;9.25;;;;;;;7.45;100.00;102325.34;4912499;29;20057;-87
2023/04/30 00:20:54;;;;;;;15.88;8.63;;;;;;;7.41;100.00;102331.34;4914362;29;20405;-87
2023/04/30 00:23:20;;;;;;;15.85;8.98;;;;;;;7.37;100.00;102331.28;4917677;29;20543;-87
2023/04/30 00:25:45;;;;;;;14.77;8.63;;;;;;;7.34;100.00;102336.38;4929087;29;20087;-87
2023/04/30 00:28:10;;;;;;;15.60;9.00;;;;;;;7.24;100.00;102327.66;4914465;29;20465;-87
2023/04/30 00:30:36;;;;;;;16.33;8.13;;;;;;;7.21;100.00;102334.47;4917763;29;20045;-88
2023/04/30 00:33:01;;;;;;;17.50;8.65;;;;;;;7.09;100.00;102330.91;4918325;29;20060;-88
2023/04/30 00:35:26;;;;;;;16.55;8.43;;;;;;;7.03;100.00;102332.50;4928659;29;20155;-87
2023/04/30 00:37:52;;;;;;;15.43;8.70;;;;;;;7.04;100.00;102348.00;4920270;29;20583;-88
2023/04/30 00:40:17;;;;;;;15.77;8.88;;;;;;;7.00;100.00;102345.34;4936748;29;20385;-87
2023/04/30 00:42:42;;;;;;;16.65;9.13;;;;;;;6.97;100.00;102345.28;4929163;29;20032;-88
2023/04/30 00:45:08;;;;;;;18.05;8.90;;;;;;;6.85;100.00;102330.50;4913545;29;20058;-87
2023/04/30 00:47:34;;;;;;;15.02;8.50;;;;;;;6.86;100.00;102347.72;4907742;29;20023;-88
2023/04/30 00:49:59;;;;;;;17.20;8.63;;;;;;;6.83;100.00;102345.06;4934687;29;20038;-87
2023/04/30 00:52:26;;;;;;;16.17;8.75;;;;;;;6.79;100.00;102340.72;4935470;29;20114;-87
2023/04/30 00:54:53;;;;;;;17.60;8.82;;;;;;;6.72;100.00;102338.91;4923245;29;20036;-88
2023/04/30 00:57:19;;;;;;;17.13;9.05;;;;;;;6.73;100.00;102341.50;4913715;29;20027;-87
2023/04/30 00:59:45;;;;;;;15.38;8.65;;;;;;;6.66;100.00;102338.81;4917599;29;20032;-88
2023/04/30 01:02:12;;;;;;;16.23;9.10;;;;;;;6.66;100.00;102339.66;4913163;29;20095;-87
2023/04/30 01:04:37;;;;;;;17.40;9.05;;;;;;;6.63;100.00;102346.47;4910615;29;20051;-88
2023/04/30 01:07:03;;;;;;;15.18;8.68;;;;;;;6.56;100.00;102337.78;4935292;29;20043;-87
2023/04/30 01:09:29;;;;;;;16.15;8.40;;;;;;;6.57;100.00;102336.06;4924201;29;20083;-88
2023/04/30 01:12:12;;;;;;;15.23;8.52;;;;;;;6.55;100.00;102340.34;4917481;29;20059;-88
2023/04/30 01:15:05;;;;;;;17.33;9.10;;;;;;;6.51;100.00;102333.38;4917470;29;20497;-88
2023/04/30 01:17:37;;;;;;;16.00;8.85;;;;;;;6.48;100.00;102338.50;4917579;29;20493;-87
2023/04/30 01:20:03;;;;;;;16.13;8.88;;;;;;;6.43;100.00;102333.25;4912908;29;20492;-87
2023/04/30 01:22:36;;;;;;;15.88;8.93;;;;;;;6.44;100.00;102336.69;4915685;29;20046;-88
2023/04/30 01:25:24;;;;;;;18.55;8.90;;;;;;;6.41;100.00;102336.66;4920872;29;20390;-87
2023/04/30 01:28:04;;;;;;;15.40;9.18;;;;;;;6.32;100.00;102332.22;4912338;29;20027;-87
2023/04/30 01:30:33;;;;;;;17.10;9.13;;;;;;;6.38;100.00;102336.59;4912136;29;20027;-87
2023/04/30 01:33:00;;;;;;;18.42;9.30;;;;;;;6.41;100.00;102339.25;4923001;29;20115;-88
2023/04/30 01:36:04;;;;;;;20.40;10.68;;;;;;;6.43;100.00;102340.13;4916501;29;20024;-87
2023/04/30 01:38:47;;;;;;;21.48;10.52;;;;;;;6.52;100.00;102335.13;4903988;29;20034;-88
2023/04/30 01:41:31;;;;;;;20.42;10.77;;;;;;;6.59;100.00;102336.97;4929750;29;20390;-87
2023/04/30 01:44:27;;;;;;;20.05;10.65;;;;;;;6.65;100.00;102342.22;4899627;29;20020;-87
2023/04/30 01:47:08;;;;;;;20.10;10.35;;;;;;;6.63;100.00;102338.75;4917758;29;20028;-88
2023/04/30 01:49:52;;;;;;;19.92;9.68;;;;;;;6.67;100.00;102332.81;4912766;29;20035;-88
2023/04/30 01:52:26;;;;;;;18.00;10.38;;;;;;;6.65;100.00;102339.63;4917406;29;20035;-87
2023/04/30 01:54:59;;;;;;;18.08;10.35;;;;;;;6.61;100.00;102335.28;4918566;29;20086;-87
2023/04/30 01:57:31;;;;;;;18.92;9.98;;;;;;;6.60;100.00;102337.00;4910876;29;20027;-87
2023/04/30 01:59:57;;;;;;;18.90;10.75;;;;;;;6.63;100.00;102334.47;4914579;29;20032;-88
2023/04/30 02:02:22;;;;;;;17.33;10.23;;;;;;;6.68;100.00;102344.84;4934950;29;20131;-88
2023/04/30 02:04:47;;;;;;;23.65;10.63;;;;;;;6.64;100.00;102345.63;4934261;29;20060;-88
2023/04/30 02:07:24;;;;;;;19.77;10.38;;;;;;;6.68;100.00;102352.59;4935197;29;20047;-88
2023/04/30 02:09:49;;;;;;;20.42;10.52;;;;;;;6.65;100.00;102342.22;4934136;29;20118;-87
2023/04/30 02:12:15;;;;;;;18.90;10.45;;;;;;;6.62;100.00;102334.44;4935247;29;20421;-87
2023/04/30 02:14:40;;;;;;;18.77;10.73;;;;;;;6.63;100.00;102341.31;4916839;29;20027;-87
2023/04/30 02:17:05;;;;;;;18.40;10.25;;;;;;;6.57;100.00;102336.06;4934333;29;20131;-87
2023/04/30 02:19:30;;;;;;;21.50;10.47;;;;;;;6.54;100.00;102339.47;4901454;29;20184;-88
2023/04/30 02:21:56;;;;;;;18.40;9.93;;;;;;;6.51;100.00;102342.00;4898992;29;20287;-87
2023/04/30 02:24:21;;;;;;;17.30;9.63;;;;;;;6.47;100.00;102336.75;4901376;29;20287;-87
2023/04/30 02:26:46;;;;;;;15.52;9.40;;;;;;;6.45;100.00;102336.72;4927948;29;20030;-87
2023/04/30 02:29:12;;;;;;;17.95;9.43;;;;;;;6.43;100.00;102343.56;4920476;29;20107;-87
2023/04/30 02:31:37;;;;;;;18.00;10.48;;;;;;;6.38;100.00;102334.88;4899008;29;20028;-87
2023/04/30 02:34:02;;;;;;;17.30;9.95;;;;;;;6.29;100.00;102333.00;4915905;29;20128;-87
2023/04/30 02:36:28;;;;;;;21.25;10.68;;;;;;;6.23;100.00;102334.63;4905420;29;20067;-87
2023/04/30 02:38:53;;;;;;;16.38;9.25;;;;;;;6.20;100.00;102338.03;4921808;29;20032;-87
2023/04/30 02:41:18;;;;;;;17.42;9.60;;;;;;;6.15;100.00;102331.03;4904680;29;20028;-88
2023/04/30 02:43:44;;;;;;;18.40;9.80;;;;;;;6.17;100.00;102329.34;4933603;29;20039;-87
2023/04/30 02:46:09;;;;;;;16.50;9.30;;;;;;;6.14;100.00;102337.03;4934766;29;20031;-87
2023/04/30 02:48:34;;;;;;;17.17;9.95;;;;;;;6.14;100.00;102340.47;4933742;29;20027;-87
2023/04/30 02:50:59;;;;;;;20.20;10.57;;;;;;;6.12;100.00;102331.00;4931867;29;20035;-88
2023/04/30 02:53:25;;;;;;;18.58;9.95;;;;;;;6.07;100.00;102324.91;4916151;29;20495;-87
2023/04/30 02:55:50;;;;;;;16.73;9.90;;;;;;;6.01;100.00;102315.31;4928275;29;20448;-87
2023/04/30 02:58:16;;;;;;;18.33;10.38;;;;;;;6.02;100.00;102329.06;4917404;29;20605;-87
2023/04/30 03:00:41;;;;;;;18.67;10.43;;;;;;;6.02;100.00;102329.06;4919240;29;20024;-87
2023/04/30 03:03:06;;;;;;;18.63;10.30;;;;;;;6.02;100.00;102324.78;4922615;29;20456;-87
2023/04/30 03:05:31;;;;;;;21.20;11.57;;;;;;;6.05;100.00;102334.28;4933987;29;20051;-87
2023/04/30 03:07:57;;;;;;;18.52;11.00;;;;;;;6.03;100.00;102333.38;4932249;29;20059;-87
2023/04/30 03:10:22;;;;;;;17.92;10.48;;;;;;;6.03;100.00;102333.38;4916774;29;20030;-87
2023/04/30 03:12:47;;;;;;;20.67;11.35;;;;;;;6.01;100.00;102322.19;4934178;29;20159;-87
2023/04/30 03:15:13;;;;;;;19.67;11.00;;;;;;;6.02;100.00;102329.94;4916940;29;20027;-88
2023/04/30 03:17:38;;;;;;;22.60;11.75;;;;;;;6.06;100.00;102339.47;4913299;29;20568;-87
2023/04/30 03:20:04;;;;;;;21.27;11.35;;;;;;;6.02;100.00;102329.06;4915138;29;20385;-87
2023/04/30 03:22:29;;;;;;;18.55;10.50;;;;;;;6.03;100.00;102334.25;4906131;29;20024;-87
2023/04/30 03:24:55;;;;;;;18.33;10.77;;;;;;;6.01;100.00;102338.50;4932509;29;20612;-87
2023/04/30 03:27:20;;;;;;;18.67;11.15;;;;;;;5.97;100.00;102335.84;4916132;29;20038;-87
2023/04/30 03:29:45;;;;;;;20.67;11.15;;;;;;;5.92;100.00;102334.06;4915141;29;20435;-88
2023/04/30 03:32:11;;;;;;;19.27;10.73;;;;;;;5.87;100.00;102340.81;4912596;29;20118;-88
2023/04/30 03:34:37;;;;;;;19.55;10.68;;;;;;;5.79;100.00;102332.06;4916983;29;20042;-88
2023/04/30 03:37:02;;;;;;;19.40;10.98;;;;;;;5.80;100.00;102330.34;4916350;29;20386;-88
2023/04/30 03:39:28;;;;;;;18.15;10.85;;;;;;;5.78;100.00;102337.16;4915175;29;20119;-87
2023/04/30 03:41:53;;;;;;;19.30;10.50;;;;;;;5.78;100.00;102343.19;4925406;29;20038;-87
2023/04/30 03:44:18;;;;;;;19.60;10.82;;;;;;;5.74;100.00;102337.91;4933369;29;20304;-87
2023/04/30 03:46:44;;;;;;;19.40;11.10;;;;;;;5.75;100.00;102349.94;4912008;29;20031;-87
2023/04/30 03:49:10;;;;;;;21.40;11.57;;;;;;;5.75;100.00;102342.22;4922690;29;20351;-87
2023/04/30 03:51:38;;;;;;;17.83;10.65;;;;;;;5.68;100.00;102337.81;4931137;29;20129;-87
2023/04/30 03:54:05;;;;;;;20.65;10.98;;;;;;;5.70;100.00;102342.16;4914487;29;20035;-87
2023/04/30 03:56:31;;;;;;;20.13;11.15;;;;;;;5.64;100.00;102330.88;4927552;29;20019;-87
2023/04/30 03:58:56;;;;;;;22.90;11.50;;;;;;;5.67;100.00;102338.63;4915127;29;20020;-87
2023/04/30 04:01:22;;;;;;;18.27;10.27;;;;;;;5.64;100.00;102334.31;4926534;29;20374;-87
2023/04/30 04:03:47;;;;;;;21.30;11.48;;;;;;;5.65;100.00;102337.75;4902159;29;20087;-88
2023/04/30 04:06:12;;;;;;;20.92;10.98;;;;;;;5.64;100.00;102351.44;4926935;29;20050;-87
2023/04/30 04:08:38;;;;;;;18.27;10.95;;;;;;;5.63;100.00;102345.44;4934265;29;20027;-87
2023/04/30 04:11:03;;;;;;;21.65;10.82;;;;;;;5.61;100.00;102339.38;4937359;29;20485;-88
2023/04/30 04:13:28;;;;;;;20.40;11.00;;;;;;;5.57;100.00;102340.16;4902378;29;20056;-87
2023/04/30 04:15:53;;;;;;;19.88;10.90;;;;;;;5.58;100.00;102349.63;4902535;29;20028;-87
2023/04/30 04:18:19;;;;;;;18.60;10.75;;;;;;;5.55;100.00;102342.69;4910253;29;20028;-87
2023/04/30 04:20:44;;;;;;;17.52;10.38;;;;;;;5.55;100.00;102346.97;4918100;29;20036;-87
2023/04/30 04:23:10;;;;;;;18.58;10.63;;;;;;;5.52;100.00;102346.94;4900971;29;20051;-87
2023/04/30 04:25:35;;;;;;;19.70;10.73;;;;;;;5.46;100.00;102346.78;4920772;29;20032;-87
2023/04/30 04:28:00;;;;;;;18.30;9.93;;;;;;;5.46;100.00;102350.22;4910412;29;20032;-88
2023/04/30 04:30:26;;;;;;;17.10;10.23;;;;;;;5.47;100.00;102348.50;4910050;29;20519;-88
2023/04/30 04:32:52;;;;;;;19.15;11.25;;;;;;;5.45;100.00;102347.63;4917543;29;20042;-88
2023/04/30 04:35:18;;;;;;;20.95;10.88;;;;;;;5.45;100.00;102352.78;4902459;29;20036;-88
2023/04/30 04:37:43;;;;;;;20.65;11.02;;;;;;;5.43;100.00;102346.72;4924432;29;20032;-88
2023/04/30 04:40:10;;;;;;;21.15;10.88;;;;;;;5.44;100.00;102349.34;4935576;29;20378;-88
2023/04/30 04:42:37;;;;;;;18.73;10.50;;;;;;;5.41;100.00;102344.09;4905597;29;20031;-88
2023/04/30 04:45:03;;;;;;;19.05;10.77;;;;;;;5.45;100.00;102360.50;4917690;29;20024;-87
2023/04/30 04:47:29;;;;;;;19.88;10.43;;;;;;;5.45;100.00;102353.66;4914699;29;20024;-88
2023/04/30 04:49:54;;;;;;;20.83;10.98;;;;;;;5.42;100.00;102353.56;4924803;29;20036;-88
2023/04/30 04:52:19;;;;;;;22.23;11.25;;;;;;;5.46;100.00;102359.63;4917486;29;20024;-87
2023/04/30 04:54:45;;;;;;;19.63;10.77;;;;;;;5.43;100.00;102352.72;4927660;29;20032;-88
2023/04/30 04:57:10;;;;;;;18.05;10.90;;;;;;;5.49;100.00;102363.16;4929411;29;20496;-88
2023/04/30 04:59:35;;;;;;;21.05;10.82;;;;;;;5.48;100.00;102358.84;4901534;29;20083;-88
2023/04/30 05:02:00;;;;;;;21.58;11.32;;;;;;;5.49;100.00;102359.72;4900261;29;20025;-88
2023/04/30 05:04:26;;;;;;;20.17;11.65;;;;;;;5.55;100.00;102363.28;4929831;29;20724;-88
2023/04/30 05:06:53;;;;;;;21.20;11.05;;;;;;;5.59;100.00;102363.34;4907746;29;20115;-88
2023/04/30 05:09:19;;;;;;;21.60;11.93;;;;;;;5.60;100.00;102354.78;4912451;29;20520;-87
2023/04/30 05:11:46;;;;;;;18.75;11.35;;;;;;;5.65;100.00;102372.06;4910222;29;20031;-86
2023/04/30 05:14:12;;;;;;;21.48;11.15;;;;;;;5.69;100.00;102376.44;4907445;29;20166;-87
2023/04/30 05:16:37;;;;;;;21.20;11.85;;;;;;;5.76;100.00;102377.41;4917059;29;20493;-88
2023/04/30 05:19:05;;;;;;;19.05;11.65;;;;;;;5.79;100.00;102375.78;4906841;29;20040;-87
2023/04/30 05:21:31;;;;;;;21.40;11.85;;;;;;;5.79;100.00;102369.78;4919325;29;20020;-87
2023/04/30 05:23:57;;;;;;;21.67;12.15;;;;;;;5.83;100.00;102371.56;4924727;29;20397;-87
2023/04/30 05:26:23;;;;;;;22.25;12.48;;;;;;;5.87;100.00;102373.34;4929093;29;20027;-86
2023/04/30 05:28:49;;;;;;;21.33;12.52;;;;;;;5.89;100.00;102367.44;4921330;29;20099;-87
2023/04/30 05:31:15;;;;;;;22.90;12.70;;;;;;;5.97;100.00;102364.16;4904432;29;20071;-87
2023/04/30 05:33:41;;;;;;;22.38;12.93;;;;;;;6.08;100.00;102366.09;4930435;29;20079;-87
2023/04/30 05:36:06;;;;;;;26.80;14.25;;;;;;;6.15;100.00;102362.78;4916975;29;20068;-87
2023/04/30 05:38:31;;;;;;;25.70;14.07;;;;;;;6.27;100.00;102364.75;4923403;29;20042;-87
2023/04/30 05:40:57;;;;;;;25.60;14.07;;;;;;;6.35;100.00;102363.16;4924785;29;20024;-88
2023/04/30 05:43:22;;;;;;;28.45;14.13;;;;;;;6.42;100.00;102359.84;4916865;29;20080;-88
2023/04/30 05:45:48;;;;;;;25.52;13.95;;;;;;;6.55;100.00;102369.53;4917994;29;20035;-87
2023/04/30 05:48:13;;;;;;;30.75;16.38;;;;;;;6.64;100.00;102368.81;4916800;29;20146;-88
2023/04/30 05:50:38;;;;;;;28.85;15.43;;;;;;;6.66;100.00;102356.84;4899283;29;20115;-87
2023/04/30 05:53:03;;;;;;;29.10;15.43;;;;;;;6.83;100.00;102360.53;4910042;29;20047;-87
2023/04/30 05:55:29;;;;;;;26.80;15.27;;;;;;;6.94;100.00;102353.88;4916951;29;20120;-87
2023/04/30 05:57:55;;;;;;;29.30;15.77;;;;;;;7.16;100.00;102364.50;4915773;29;20043;-87
2023/04/30 06:00:20;;;;;;;29.77;16.30;;;;;;;7.35;100.00;102358.75;4919443;29;20020;-87
2023/04/30 06:02:46;;;;;;;33.78;16.42;;;;;;;7.84;100.00;102361.13;4905973;29;20115;-88
2023/04/30 06:05:11;;;;;;;26.25;15.73;;;;;;;8.35;100.00;102365.13;4918792;29;20044;-88
2023/04/30 06:07:36;;;;;;;29.23;15.60;;;;;;;8.41;100.00;102365.19;4934545;29;20031;-88
2023/04/30 06:10:02;;;;;;;22.92;14.80;;;;;;;8.38;100.00;102364.31;4918230;29;20020;-88
2023/04/30 06:12:28;;;;;;;25.83;15.02;;;;;;;8.37;100.00;102365.16;4934187;29;20031;-87
2023/04/30 06:14:53;;;;;;;27.98;15.20;;;;;;;8.40;100.00;102355.72;4907401;29;20028;-87
2023/04/30 06:17:18;;;;;;;24.90;13.73;;;;;;;8.44;100.00;102354.03;4924521;29;20039;-89
2023/04/30 06:19:44;;;;;;;22.50;13.60;;;;;;;8.56;100.00;102354.13;4908462;29;20023;-88
2023/04/30 06:22:09;;;;;;;22.20;13.60;;;;;;;8.73;100.00;102356.00;4918786;29;20028;-88
2023/04/30 06:24:34;;;;;;;22.50;12.57;;;;;;;8.84;100.00;102353.53;4928020;29;20087;-87
2023/04/30 06:27:00;;;;;;;21.52;13.15;;;;;;;8.89;100.00;102356.13;4903613;29;20047;-88
2023/04/30 06:29:25;;;;;;;23.38;12.57;;;;;;;8.93;100.00;102356.19;4904946;29;20465;-87
2023/04/30 06:31:51;;;;;;;21.67;12.45;;;;;;;8.97;100.00;102357.94;4927266;29;20437;-88
2023/04/30 06:34:19;;;;;;;21.25;12.15;;;;;;;8.96;100.00;102345.84;4910191;29;20109;-87
2023/04/30 06:36:44;;;;;;;19.55;11.82;;;;;;;9.13;100.00;102355.44;4921113;29;20098;-87
2023/04/30 06:39:14;;;;;;;20.52;11.65;;;;;;;9.34;100.00;102353.88;4907746;29;20036;-87
2023/04/30 06:41:42;;;;;;;18.27;11.30;;;;;;;9.45;100.00;102357.38;4928504;29;20032;-87
2023/04/30 06:44:08;;;;;;;18.63;10.98;;;;;;;9.59;100.00;102360.03;4933932;29;20536;-88
2023/04/30 06:46:33;;;;;;;19.80;11.57;;;;;;;9.66;100.00;102361.78;4935004;29;20027;-86
2023/04/30 06:48:59;;;;;;;21.20;11.38;;;;;;;9.81;100.00;102364.44;4932079;29;20537;-87
2023/04/30 06:51:25;;;;;;;18.38;11.40;;;;;;;10.18;100.00;102361.97;4904775;29;20028;-87
2023/04/30 06:53:50;;;;;;;19.38;11.23;;;;;;;10.79;99.20;102362.91;4934836;29;20086;-86
2023/04/30 06:56:16;;;;;;;18.90;11.48;;;;;;;11.43;98.83;102366.28;4904791;29;20032;-88
2023/04/30 06:58:41;;;;;;;20.90;11.55;;;;;;;12.05;97.58;102362.59;4911225;29;20036;-87
2023/04/30 07:01:10;;;;;;;19.00;11.07;;;;;;;12.50;91.83;102357.97;4913245;29;20028;-88
2023/04/30 07:03:40;;;;;;;21.33;11.20;;;;;;;12.73;89.02;102355.19;4915757;29;20122;-88
2023/04/30 07:06:10;;;;;;;19.70;10.95;;;;;;;12.87;86.23;102362.00;4928926;29;20119;-87
2023/04/30 07:08:42;;;;;;;18.08;10.98;;;;;;;13.06;87.67;102355.75;4909845;29;20020;-86
2023/04/30 07:11:11;;;;;;;16.65;10.82;;;;;;;13.38;89.08;102347.63;4913692;29;20063;-87
2023/04/30 07:13:37;;;;;;;17.38;11.38;;;;;;;13.78;80.77;102362.81;4915498;29;20032;-87
2023/04/30 07:16:03;;;;;;;18.83;11.68;;;;;;;14.03;82.88;102358.97;4918615;29;20039;-88
2023/04/30 07:18:29;;;;;;;16.73;10.85;;;;;;;14.18;78.99;102357.91;4915814;29;20039;-87
2023/04/30 07:20:54;;;;;;;17.00;10.68;;;;;;;14.49;81.41;102360.94;4915809;29;20024;-87
2023/04/30 07:23:20;;;;;;;17.35;11.13;;;;;;;15.08;81.89;102349.47;4930608;29;20035;-87
2023/04/30 07:25:45;;;;;;;15.50;10.52;;;;;;;15.81;80.42;102355.94;4929980;29;20411;-87
2023/04/30 07:28:10;;;;;;;18.17;11.30;;;;;;;16.59;75.89;102347.13;4905225;29;20052;-87
2023/04/30 07:30:36;;;;;;;16.83;10.82;;;;;;;17.08;73.33;102348.53;4917201;29;20036;-87
2023/04/30 07:33:04;;;;;;;15.25;10.43;;;;;;;17.43;68.77;102353.69;4898590;29;20020;-87
2023/04/30 07:35:30;;;;;;;14.40;10.75;;;;;;;17.82;67.48;102356.94;4928075;29;20397;-87
2023/04/30 07:37:55;;;;;;;17.35;10.98;;;;;;;17.68;65.03;102341.63;4904381;29;20078;-88
2023/04/30 07:40:21;;;;;;;15.73;10.30;;;;;;;17.16;68.03;102349.19;4922254;29;20020;-88
2023/04/30 07:42:46;;;;;;;15.07;10.32;;;;;;;16.98;65.12;102347.94;4926469;29;20032;-88
2023/04/30 07:45:14;;;;;;;16.02;10.27;;;;;;;16.92;68.44;102340.25;4915421;29;20104;-88
2023/04/30 07:47:40;;;;;;;16.30;11.10;;;;;;;17.14;65.35;102341.38;4915818;29;20032;-88
2023/04/30 07:50:13;;;;;;;15.95;10.95;;;;;;;17.95;63.64;102339.06;4908760;29;20031;-87
2023/04/30 07:52:39;;;;;;;14.20;10.20;;;;;;;19.06;58.94;102343.31;4917289;29;20057;-88
2023/04/30 07:55:05;;;;;;;17.08;10.60;;;;;;;19.85;57.73;102338.69;4916564;29;20140;-88
2023/04/30 07:57:30;;;;;;;17.08;11.07;;;;;;;20.39;54.31;102330.41;4921055;29;20063;-88
2023/04/30 07:59:56;;;;;;;17.43;10.73;;;;;;;20.97;53.06;102335.84;4926175;29;20425;-87
2023/04/30 08:02:21;;;;;;;16.02;10.35;;;;;;;21.31;52.89;102340.50;4903879;29;20292;-87
2023/04/30 08:04:47;;;;;;;14.88;10.23;;;;;;;21.60;49.93;102340.06;4924423;29;20056;-87
2023/04/30 08:07:14;;;;;;;15.27;9.90;;;;;;;21.88;51.45;102344.06;4907340;29;20036;-88
2023/04/30 08:09:40;;;;;;;14.95;10.85;;;;;;;21.93;47.30;102347.34;4907568;29;20020;-88
2023/04/30 08:12:07;;;;;;;13.50;10.15;;;;;;;22.20;47.12;102350.47;4920317;29;20075;-88
2023/04/30 08:14:33;;;;;;;14.40;10.48;;;;;;;22.22;46.15;102340.69;4909176;29;20040;-87
2023/04/30 08:16:59;;;;;;;12.43;9.60;;;;;;;22.53;45.43;102340.88;4914463;29;20055;-88
2023/04/30 08:19:25;;;;;;;16.50;10.05;;;;;;;23.13;45.17;102350.16;4917810;29;20023;-88
2023/04/30 08:21:51;;;;;;;13.38;10.05;;;;;;;23.44;45.32;102353.84;4899353;29;20393;-88
2023/04/30 08:24:16;;;;;;;14.55;10.00;;;;;;;23.74;45.75;102343.44;4916668;29;20075;-88
2023/04/30 08:26:44;;;;;;;12.77;10.05;;;;;;;24.18;45.92;102341.78;4921361;29;20106;-88
2023/04/30 08:29:10;;;;;;;13.73;9.77;;;;;;;24.59;41.29;102344.72;4900456;29;20136;-88
2023/04/30 08:31:38;;;;;;;12.00;9.48;;;;;;;24.56;42.45;102346.72;4928709;29;20080;-89
2023/04/30 08:34:03;;;;;;;14.55;9.95;;;;;;;24.62;43.22;102343.69;4927305;29;20413;-88
2023/04/30 08:36:29;;;;;;;14.10;10.25;;;;;;;24.35;39.56;102351.47;4898807;29;20036;-88
2023/04/30 08:38:54;;;;;;;13.88;10.30;;;;;;;23.96;44.11;102351.88;4915669;29;20027;-88
2023/04/30 08:41:25;;;;;;;15.52;11.15;;;;;;;23.21;44.58;102355.06;4915867;29;20075;-88
2023/04/30 08:43:52;;;;;;;15.15;11.05;;;;;;;22.26;45.95;102339.59;4915599;29;20032;-88
2023/04/30 08:46:19;;;;;;;16.60;11.40;;;;;;;21.64;45.86;102351.31;4908645;29;20032;-89
2023/04/30 08:48:47;;;;;;;14.70;10.63;;;;;;;21.15;46.58;102347.38;4920791;29;20023;-87
2023/04/30 08:51:15;;;;;;;14.57;10.75;;;;;;;20.27;47.93;102327.34;4912033;29;20043;-89
2023/04/30 08:53:45;;;;;;;17.52;11.73;;;;;;;19.53;52.25;102337.25;4938046;29;20027;-88
2023/04/30 08:56:10;;;;;;;14.20;10.60;;;;;;;19.22;54.23;102331.38;4934594;29;20035;-88
2023/04/30 08:58:45;;;;;;;15.45;11.02;;;;;;;19.16;55.42;102345.59;4913813;29;20090;-89
2023/04/30 09:01:10;;;;;;;14.18;10.40;;;;;;;18.86;55.99;102326.50;4923520;29;20034;-88
2023/04/30 09:03:36;;;;;;;16.33;10.93;;;;;;;18.68;55.26;102331.50;4908637;29;20036;-88
2023/04/30 09:06:07;;;;;;;14.88;10.80;;;;;;;18.37;54.61;102331.63;4934781;29;20247;-88
2023/04/30 09:08:43;;;;;;;15.35;10.77;;;;;;;18.14;57.78;102321.88;4919786;29;20023;-88
2023/04/30 09:11:29;;;;;;;15.20;10.90;;;;;;;17.97;57.86;102326.78;4931514;29;20043;-88
2023/04/30 09:13:56;;;;;;;16.92;11.48;;;;;;;17.76;56.74;102318.66;4909887;29;20028;-88
2023/04/30 09:16:31;;;;;;;15.40;11.43;;;;;;;17.62;59.35;102331.31;4937633;29;20031;-88
2023/04/30 09:18:57;;;;;;;15.35;12.32;;;;;;;17.47;58.20;102341.38;4926830;29;20036;-88
2023/04/30 09:21:34;;;;;;;17.05;12.43;;;;;;;17.17;59.25;102328.19;4920913;29;20039;-88
2023/04/30 09:24:01;;;;;;;15.30;11.43;;;;;;;16.93;58.56;102324.47;4918881;29;20024;-88
2023/04/30 09:26:35;;;;;;;15.75;11.05;;;;;;;16.88;58.26;102338.59;4928946;29;20027;-88
2023/04/30 09:29:06;;;;;;;15.50;10.88;;;;;;;16.72;60.66;102317.16;4927387;29;20051;-88
2023/04/30 09:31:37;;;;;;;14.68;10.65;;;;;;;16.53;58.23;102311.50;4918509;29;20028;-88
2023/04/30 09:34:03;;;;;;;12.50;9.30;;;;;;;16.34;60.02;102320.72;4918414;29;20024;-88
2023/04/30 09:36:30;;;;;;;12.93;8.43;;;;;;;16.46;62.14;102336.09;4934174;29;20034;-88
2023/04/30 09:39:04;;;;;;;14.38;9.60;;;;;;;16.42;60.22;102321.38;4908770;29;20034;-88
2023/04/30 09:41:30;;;;;;;14.88;9.88;;;;;;;16.58;65.48;102309.63;4918058;29;20103;-88
2023/04/30 09:44:04;;;;;;;11.93;8.85;;;;;;;16.81;61.42;102316.06;4918137;29;22201;-88
2023/04/30 09:46:36;;;;;;;14.38;9.60;;;;;;;16.91;61.86;102310.56;4915977;29;20051;-88
2023/04/30 09:49:04;;;;;;;13.70;9.25;;;;;;;16.93;62.32;102300.03;4919818;29;20062;-88
2023/04/30 09:51:32;;;;;;;11.00;7.40;;;;;;;17.06;59.97;102309.28;4918789;29;20024;-88
2023/04/30 09:54:12;;;;;;;12.40;8.00;;;;;;;17.01;58.60;102299.81;4918094;29;20040;-88
2023/04/30 09:56:38;;;;;;;13.00;8.90;;;;;;;16.96;59.30;102313.06;4905081;29;20115;-87
2023/04/30 09:59:06;;;;;;;11.38;8.50;;;;;;;16.87;61.28;102297.56;4927506;29;20031;-88
2023/04/30 10:01:32;;;;;;;12.18;8.55;;;;;;;16.88;59.53;102299.28;4936768;29;20032;-88
2023/04/30 10:03:58;;;;;;;12.05;8.43;;;;;;;16.74;57.48;102304.03;4891286;29;20462;-87
2023/04/30 10:06:28;;;;;;;11.57;8.30;;;;;;;16.52;58.40;102299.31;4923914;29;20517;-87
2023/04/30 10:08:56;;;;;;;12.07;8.07;;;;;;;16.52;58.82;102299.31;4935629;29;20560;-87
2023/04/30 10:11:30;;;;;;;9.48;6.72;;;;;;;16.61;61.99;102308.72;4919590;29;20043;-87
2023/04/30 10:14:08;;;;;;;10.02;6.90;;;;;;;16.65;60.88;102286.78;4923327;29;20024;-88
2023/04/30 10:16:56;;;;;;;11.20;8.05;;;;;;;16.80;61.22;102290.78;4900293;29;20119;-87
2023/04/30 10:19:29;;;;;;;10.45;7.50;;;;;;;16.94;60.87;102300.00;4917478;29;20042;-88
2023/04/30 10:21:58;;;;;;;10.77;8.25;;;;;;;16.97;60.01;102304.28;4917950;29;20133;-87
2023/04/30 10:24:24;;;;;;;11.07;7.20;;;;;;;17.06;61.85;102300.59;4913551;29;20035;-88
2023/04/30 10:26:49;;;;;;;10.70;7.57;;;;;;;16.94;58.25;102302.59;4934034;29;20111;-88
2023/04/30 10:29:19;;;;;;;10.10;7.43;;;;;;;16.74;57.88;102296.19;4922663;29;20031;-88
2023/04/30 10:31:49;;;;;;;12.50;7.90;;;;;;;16.67;60.44;102295.47;4935695;29;20119;-88
2023/04/30 10:34:51;;;;;;;10.80;7.78;;;;;;;16.69;61.33;102291.06;4918949;29;20024;-88
2023/04/30 10:37:39;;;;;;;11.63;7.65;;;;;;;16.74;60.81;102296.19;4919444;29;20545;-88
2023/04/30 10:40:08;;;;;;;10.07;7.38;;;;;;;16.76;58.46;102284.78;4918180;29;20019;-88
2023/04/30 10:42:34;;;;;;;12.63;7.68;;;;;;;16.67;58.09;102268.44;4901014;29;20052;-88
2023/04/30 10:45:04;;;;;;;10.15;8.30;;;;;;;16.48;60.40;102258.41;4899739;29;20075;-88
2023/04/30 10:47:30;;;;;;;12.45;9.15;;;;;;;16.50;61.29;102268.84;4929830;29;20035;-88
2023/04/30 10:50:08;;;;;;;11.45;8.25;;;;;;;16.31;61.18;102249.28;4923606;29;20028;-87
2023/04/30 10:52:33;;;;;;;9.90;7.70;;;;;;;16.39;61.91;102263.88;4916693;29;20110;-88
2023/04/30 10:55:04;;;;;;;9.38;6.78;;;;;;;16.47;60.00;102259.31;4917170;29;20067;-87
2023/04/30 10:57:30;;;;;;;9.88;6.75;;;;;;;16.42;59.57;102242.00;4913080;29;20028;-87
2023/04/30 11:00:08;;;;;;;10.63;7.00;;;;;;;16.69;61.81;102264.03;4917609;29;20034;-88
2023/04/30 11:02:47;;;;;;;9.57;6.20;;;;;;;16.81;60.65;102255.84;4915854;29;20024;-87
2023/04/30 11:05:17;;;;;;;11.10;6.65;;;;;;;16.77;58.98;102259.44;4901326;29;20056;-87
2023/04/30 11:07:49;;;;;;;9.82;6.43;;;;;;;16.56;59.58;102232.91;4916990;29;20035;-88
2023/04/30 11:10:15;;;;;;;9.40;6.43;;;;;;;16.58;59.60;102235.47;4913101;29;20031;-87
2023/04/30 11:12:48;;;;;;;10.60;6.35;;;;;;;16.73;60.81;102234.22;4916377;29;20028;-88
2023/04/30 11:15:16;;;;;;;8.45;6.05;;;;;;;16.79;58.45;102231.44;4915883;29;20039;-88